Time;durP1;ratioP1;P1;durP2;ratioP2;P2;SDS_P1;SDS_P2;PMS_P1;PMS_P2;Temp;Humidity;BMP_temperature;BMP_pressure;BME280_temperature;BME280_humidity;BME280_pressure;Samples;Min_cycle;Max_cycle;Signal;HPM_P1;HPM_P2
2022/06/13 00:01:13;;;;;;;6.53;2.00;;;16.50;98.10;;;;;;5109973;28;20203;-52
2022/06/13 00:03:42;;;;;;;4.07;2.15;;;16.40;98.00;;;;;;5108938;28;20577;-52
2022/06/13 00:06:10;;;;;;;6.13;2.40;;;16.40;98.00;;;;;;5110048;28;20227;-52
2022/06/13 00:08:38;;;;;;;6.63;2.50;;;16.30;97.90;;;;;;5109505;28;20219;-52
2022/06/13 00:11:11;;;;;;;5.15;2.38;;;16.30;97.80;;;;;;5105133;28;20208;-52
2022/06/13 00:13:41;;;;;;;4.38;2.30;;;16.30;98.00;;;;;;5082195;28;20207;-52
2022/06/13 00:16:11;;;;;;;5.47;2.25;;;16.20;98.30;;;;;;5109477;28;20704;-52
2022/06/13 00:18:39;;;;;;;4.95;2.28;;;16.00;98.60;;;;;;5109638;28;20208;-52
2022/06/13 00:21:07;;;;;;;4.78;2.25;;;16.00;98.80;;;;;;5109608;28;20208;-52
2022/06/13 00:23:37;;;;;;;2.70;2.03;;;16.00;98.70;;;;;;5107545;28;20207;-52
2022/06/13 00:26:05;;;;;;;3.25;1.98;;;15.90;98.70;;;;;;5109359;28;20231;-52
2022/06/13 00:28:35;;;;;;;4.95;2.33;;;15.90;98.90;;;;;;5108759;28;20774;-52
2022/06/13 00:31:03;;;;;;;6.75;2.25;;;15.80;99.10;;;;;;5110259;28;20265;-52
2022/06/13 00:33:31;;;;;;;4.07;2.10;;;15.80;99.30;;;;;;5109175;28;20211;-52
2022/06/13 00:35:59;;;;;;;6.53;2.55;;;15.70;99.90;;;;;;5109559;28;20227;-52
2022/06/13 00:38:27;;;;;;;6.75;2.53;;;15.60;99.90;;;;;;5104892;28;20664;-52
2022/06/13 00:40:55;;;;;;;6.45;2.45;;;15.60;99.90;;;;;;5109683;28;20246;-52
2022/06/13 00:43:24;;;;;;;5.28;2.40;;;15.50;99.90;;;;;;5099979;28;20262;-52
2022/06/13 00:45:54;;;;;;;7.00;2.22;;;15.50;99.90;;;;;;5109562;28;20262;-52
2022/06/13 00:48:27;;;;;;;4.40;2.20;;;15.40;99.90;;;;;;5100596;28;20265;-52
2022/06/13 00:50:58;;;;;;;4.60;1.90;;;15.40;99.90;;;;;;5108646;28;20264;-52
2022/06/13 00:53:29;;;;;;;5.43;2.40;;;15.20;99.90;;;;;;5104762;28;20211;-52
2022/06/13 00:56:00;;;;;;;4.65;2.33;;;15.20;99.90;;;;;;5108304;28;20263;-53
2022/06/13 00:58:32;;;;;;;6.15;2.50;;;15.10;99.90;;;;;;5114187;28;20238;-52
2022/06/13 01:01:02;;;;;;;7.63;2.42;;;15.10;99.90;;;;;;5113228;28;20664;-52
2022/06/13 01:03:34;;;;;;;2.50;1.67;;;15.00;99.90;;;;;;5113279;28;20282;-52
2022/06/13 01:06:05;;;;;;;3.70;2.55;;;15.00;99.90;;;;;;5113180;28;20712;-52
2022/06/13 01:08:37;;;;;;;5.80;2.37;;;14.90;99.90;;;;;;5113411;28;20203;-52
2022/06/13 01:11:18;;;;;;;5.45;2.60;;;14.90;99.90;;;;;;5113680;28;20623;-52
2022/06/13 01:14:31;;;;;;;4.13;2.30;;;14.80;99.90;;;;;;5113074;28;20203;-52
2022/06/13 01:17:27;;;;;;;5.37;2.40;;;14.70;99.90;;;;;;5104266;28;20223;-52
2022/06/13 01:20:12;;;;;;;4.72;2.33;;;14.60;99.90;;;;;;5114478;28;20636;-52
2022/06/13 01:23:21;;;;;;;5.30;2.20;;;14.60;99.90;;;;;;5100236;28;20204;-52
2022/06/13 01:26:27;;;;;;;4.63;2.70;;;14.50;99.90;;;;;;5107925;28;20220;-53
2022/06/13 01:29:27;;;;;;;6.67;3.00;;;14.40;99.90;;;;;;5112120;28;20254;-52
2022/06/13 01:32:02;;;;;;;5.67;2.60;;;14.30;99.90;;;;;;5112651;28;20254;-52
2022/06/13 01:34:40;;;;;;;5.90;2.30;;;14.20;99.90;;;;;;5110971;28;20231;-52
2022/06/13 01:37:22;;;;;;;6.27;2.67;;;14.20;99.90;;;;;;5112025;28;20711;-53
2022/06/13 01:40:02;;;;;;;4.93;2.40;;;14.20;99.90;;;;;;5111158;28;20234;-52
2022/06/13 01:42:38;;;;;;;8.20;2.53;;;14.10;99.90;;;;;;5111420;28;20997;-52
2022/06/13 01:45:12;;;;;;;5.00;2.67;;;14.00;99.90;;;;;;5111836;28;20203;-52
2022/06/13 01:47:52;;;;;;;4.20;2.27;;;14.00;99.90;;;;;;5107185;28;20200;-52
2022/06/13 01:50:27;;;;;;;6.30;2.80;;;14.00;99.90;;;;;;5093010;28;20224;-52
2022/06/13 01:53:03;;;;;;;5.97;2.70;;;13.90;99.90;;;;;;5082557;28;20354;-52
2022/06/13 01:55:42;;;;;;;5.67;2.83;;;13.80;99.90;;;;;;5111320;28;20960;-52
2022/06/13 01:58:15;;;;;;;6.17;2.50;;;13.80;99.90;;;;;;5111155;28;20679;-52
2022/06/13 02:00:50;;;;;;;6.67;3.10;;;13.70;99.90;;;;;;5111331;28;20618;-52
2022/06/13 02:03:26;;;;;;;5.40;2.90;;;13.70;99.90;;;;;;5102983;28;20211;-52
2022/06/13 02:06:01;;;;;;;3.67;2.40;;;13.60;99.90;;;;;;5106103;28;20227;-52
2022/06/13 02:08:35;;;;;;;5.50;2.80;;;13.50;99.90;;;;;;5110819;28;20234;-52
2022/06/13 02:11:09;;;;;;;6.13;3.03;;;13.40;99.90;;;;;;5111754;28;20208;-52
2022/06/13 02:13:46;;;;;;;5.17;3.07;;;13.30;99.90;;;;;;5110805;28;20204;-52
2022/06/13 02:16:20;;;;;;;3.00;2.50;;;13.30;99.90;;;;;;5110101;28;20280;-52
2022/06/13 02:18:55;;;;;;;7.00;2.83;;;13.30;99.90;;;;;;5111124;28;20446;-52
2022/06/13 02:21:29;;;;;;;5.60;2.77;;;13.30;99.90;;;;;;5110838;28;20252;-52
2022/06/13 02:24:06;;;;;;;5.13;3.10;;;13.30;99.90;;;;;;5110770;28;20257;-52
2022/06/13 02:26:37;;;;;;;5.53;3.00;;;13.30;99.90;;;;;;5100318;28;20274;-52
2022/06/13 02:29:10;;;;;;;5.90;2.77;;;13.20;99.90;;;;;;5110440;28;20249;-52
2022/06/13 02:31:43;;;;;;;7.47;3.17;;;13.10;99.90;;;;;;5111717;28;20203;-51
2022/06/13 02:34:16;;;;;;;5.27;2.77;;;13.00;99.90;;;;;;5113839;28;20580;-51
2022/06/13 02:36:51;;;;;;;5.00;2.77;;;13.00;99.90;;;;;;5075312;28;1103226;-56
2022/06/13 02:39:25;;;;;;;5.37;2.53;;;13.00;99.90;;;;;;5113626;28;20188;-51
2022/06/13 02:41:59;;;;;;;5.27;2.80;;;12.90;99.90;;;;;;5112303;28;20257;-52
2022/06/13 02:44:33;;;;;;;8.77;3.00;;;12.90;99.90;;;;;;5111102;28;20710;-51
2022/06/13 02:47:09;;;;;;;6.90;2.93;;;12.80;99.90;;;;;;5109587;28;20292;-52
2022/06/13 02:49:42;;;;;;;6.03;3.27;;;12.90;99.90;;;;;;5095976;28;20223;-51
2022/06/13 02:52:18;;;;;;;8.93;3.50;;;12.80;99.90;;;;;;5112168;28;20242;-52
2022/06/13 02:54:50;;;;;;;5.33;3.37;;;12.80;99.90;;;;;;5111626;28;20207;-52
2022/06/13 02:57:35;;;;;;;5.20;3.03;;;12.70;99.90;;;;;;5111700;28;20257;-52
2022/06/13 03:00:14;;;;;;;6.70;3.07;;;12.80;99.90;;;;;;5087928;28;20550;-52
2022/06/13 03:02:49;;;;;;;6.80;3.50;;;12.70;99.90;;;;;;5110878;28;20207;-52
2022/06/13 03:05:48;;;;;;;5.07;3.00;;;12.60;99.90;;;;;;5111012;28;20631;-51
2022/06/13 03:08:42;;;;;;;7.00;3.33;;;12.60;99.90;;;;;;5110762;28;20219;-52
2022/06/13 03:11:25;;;;;;;6.30;3.47;;;12.50;99.90;;;;;;5111393;28;20219;-51
2022/06/13 03:14:02;;;;;;;6.30;3.60;;;12.40;99.90;;;;;;5111234;28;20199;-51
2022/06/13 03:16:34;;;;;;;7.53;3.30;;;12.30;99.90;;;;;;5110848;28;20700;-52
2022/06/13 03:19:08;;;;;;;5.27;3.10;;;12.30;99.90;;;;;;5111442;28;20199;-52
2022/06/13 03:21:43;;;;;;;5.23;2.83;;;12.30;99.90;;;;;;5110155;28;20199;-52
2022/06/13 03:24:17;;;;;;;9.27;3.40;;;12.40;99.90;;;;;;5111024;28;20261;-52
2022/06/13 03:26:50;;;;;;;7.10;3.40;;;12.50;99.90;;;;;;5100822;28;20223;-51
2022/06/13 03:29:24;;;;;;;8.00;3.30;;;12.50;99.90;;;;;;5110898;28;20253;-52
2022/06/13 03:31:56;;;;;;;5.80;3.43;;;12.40;99.90;;;;;;5110322;28;20926;-51
2022/06/13 03:34:29;;;;;;;9.60;3.77;;;12.40;99.90;;;;;;5111143;28;20234;-51
2022/06/13 03:37:04;;;;;;;5.90;3.77;;;12.40;99.90;;;;;;5110778;28;20612;-52
2022/06/13 03:39:36;;;;;;;7.33;3.33;;;12.30;99.90;;;;;;5110888;28;20686;-52
2022/06/13 03:42:09;;;;;;;9.23;3.87;;;12.30;99.90;;;;;;5110644;28;20207;-52
2022/06/13 03:44:44;;;;;;;6.83;3.77;;;12.30;99.90;;;;;;5110823;28;20239;-51
2022/06/13 03:47:18;;;;;;;8.43;3.13;;;12.30;99.90;;;;;;5109598;28;20219;-52
2022/06/13 03:49:50;;;;;;;8.23;3.80;;;12.40;99.90;;;;;;5101155;28;20249;-52
2022/06/13 03:52:20;;;;;;;8.33;3.83;;;12.60;99.90;;;;;;5110188;28;20253;-52
2022/06/13 03:54:53;;;;;;;5.37;3.67;;;12.60;99.90;;;;;;5099916;28;20243;-52
2022/06/13 03:57:25;;;;;;;6.63;3.57;;;12.70;99.90;;;;;;5106561;28;20638;-52
2022/06/13 03:59:56;;;;;;;7.90;3.33;;;12.90;99.90;;;;;;5110497;28;20196;-51
2022/06/13 04:02:28;;;;;;;6.50;3.50;;;13.00;99.90;;;;;;5110369;28;20208;-52
2022/06/13 04:04:56;;;;;;;6.77;3.37;;;13.10;99.90;;;;;;5110321;28;20247;-51
2022/06/13 04:07:28;;;;;;;10.23;3.53;;;13.20;99.90;;;;;;5110365;28;20272;-51
2022/06/13 04:10:00;;;;;;;7.80;4.03;;;13.30;99.90;;;;;;5109793;28;20211;-52
2022/06/13 04:12:50;;;;;;;7.10;3.30;;;13.70;99.90;;;;;;5109758;28;20207;-52
2022/06/13 04:15:39;;;;;;;7.90;4.10;;;13.90;99.90;;;;;;5110340;28;20207;-52
2022/06/13 04:18:15;;;;;;;6.60;3.63;;;14.00;99.90;;;;;;5109457;28;20208;-52
2022/06/13 04:20:50;;;;;;;8.20;3.30;;;14.10;99.90;;;;;;5110272;28;20203;-52
2022/06/13 04:23:25;;;;;;;7.00;3.50;;;14.20;99.90;;;;;;5097648;28;20283;-52
2022/06/13 04:26:02;;;;;;;5.90;3.60;;;14.40;99.90;;;;;;5104158;28;20223;-52
2022/06/13 04:28:36;;;;;;;8.10;3.60;;;14.60;99.90;;;;;;5106841;28;20241;-52
2022/06/13 04:31:06;;;;;;;6.57;3.63;;;14.70;99.90;;;;;;5110245;28;20259;-52
2022/06/13 04:33:39;;;;;;;8.00;3.43;;;15.00;99.90;;;;;;5108903;28;20203;-52
2022/06/13 04:36:11;;;;;;;6.57;3.50;;;15.40;99.90;;;;;;5110098;28;20284;-52
2022/06/13 04:38:44;;;;;;;7.57;3.38;;;15.70;99.90;;;;;;5108852;28;20655;-52
2022/06/13 04:41:13;;;;;;;6.30;3.53;;;15.50;99.90;;;;;;5110241;28;20196;-51
2022/06/13 04:43:45;;;;;;;6.07;3.42;;;15.30;99.90;;;;;;5095036;28;20550;-52
2022/06/13 04:46:18;;;;;;;7.32;3.63;;;15.00;99.90;;;;;;5109706;28;20226;-52
2022/06/13 04:48:50;;;;;;;8.23;3.85;;;14.90;99.90;;;;;;5095600;28;20207;-52
2022/06/13 04:51:22;;;;;;;12.95;6.20;;;14.90;99.90;;;;;;5109171;28;20227;-52
2022/06/13 04:54:00;;;;;;;1619.13;842.22;;;14.90;99.90;;;;;;5109453;28;20235;-53
2022/06/13 04:56:29;;;;;;;57.95;34.85;;;15.00;99.90;;;;;;5109390;28;20266;-53
2022/06/13 04:58:59;;;;;;;75.53;56.30;;;15.10;99.90;;;;;;5109541;28;20993;-52
2022/06/13 05:01:31;;;;;;;72.60;46.38;;;15.50;99.90;;;;;;5109062;28;20264;-52
2022/06/13 05:04:03;;;;;;;27.65;17.13;;;15.50;99.90;;;;;;5108939;28;20211;-53
2022/06/13 05:06:36;;;;;;;10.15;6.47;;;15.40;99.90;;;;;;5109121;28;20232;-52
2022/06/13 05:09:29;;;;;;;201.77;107.85;;;15.50;99.90;;;;;;5108099;28;20263;-53
2022/06/13 05:12:06;;;;;;;25.65;14.73;;;15.70;99.90;;;;;;5108633;28;20947;-52
2022/06/13 05:14:38;;;;;;;13.00;7.22;;;15.90;99.90;;;;;;5109560;28;20203;-53
2022/06/13 05:17:23;;;;;;;10.02;4.60;;;16.10;99.90;;;;;;5109469;28;20277;-52
2022/06/13 05:20:02;;;;;;;6.80;3.90;;;15.90;99.90;;;;;;5109367;28;20281;-52
2022/06/13 05:22:48;;;;;;;8.15;4.13;;;16.00;99.90;;;;;;5097433;28;20254;-53
2022/06/13 05:25:30;;;;;;;7.38;3.75;;;17.20;99.90;;;;;;5095564;28;20243;-52
2022/06/13 05:27:59;;;;;;;9.63;3.80;;;17.80;99.90;;;;;;5085642;28;20281;-52
2022/06/13 05:30:27;;;;;;;6.35;3.70;;;17.50;99.90;;;;;;5089753;28;20622;-53
2022/06/13 05:32:57;;;;;;;19.95;13.65;;;17.30;99.90;;;;;;5113110;28;20677;-53
2022/06/13 05:35:27;;;;;;;23.52;14.80;;;17.00;99.90;;;;;;5112226;28;20204;-52
2022/06/13 05:37:57;;;;;;;12.13;6.00;;;17.20;99.90;;;;;;5111427;28;20642;-51
2022/06/13 05:40:27;;;;;;;8.35;4.22;;;17.70;99.90;;;;;;5112497;28;20248;-52
2022/06/13 05:42:55;;;;;;;8.38;3.90;;;17.90;99.90;;;;;;5088672;28;20275;-53
2022/06/13 05:45:24;;;;;;;7.93;4.03;;;18.40;99.90;;;;;;5092955;28;20286;-52
2022/06/13 05:47:54;;;;;;;8.95;4.53;;;18.30;99.90;;;;;;5103445;28;20223;-52
2022/06/13 05:50:32;;;;;;;9.15;4.88;;;18.80;99.90;;;;;;5108281;28;20203;-53
2022/06/13 05:53:00;;;;;;;10.40;4.45;;;19.60;99.90;;;;;;5111693;28;20680;-52
2022/06/13 05:55:30;;;;;;;7.93;4.82;;;19.70;99.90;;;;;;5112528;28;20243;-52
2022/06/13 05:58:01;;;;;;;10.63;5.88;;;20.30;99.90;;;;;;5112814;28;20207;-53
2022/06/13 06:00:35;;;;;;;10.98;4.68;;;20.20;99.90;;;;;;5112923;28;20215;-53
2022/06/13 06:03:04;;;;;;;6.10;3.22;;;20.00;99.90;;;;;;5112591;28;20200;-53
2022/06/13 06:05:32;;;;;;;8.65;3.47;;;19.80;99.90;;;;;;5111652;28;20394;-53
2022/06/13 06:08:00;;;;;;;5.85;3.58;;;19.60;99.90;;;;;;5111877;28;20212;-53
2022/06/13 06:10:33;;;;;;;6.55;3.17;;;20.40;99.90;;;;;;5104486;28;20661;-52
2022/06/13 06:13:02;;;;;;;6.28;3.47;;;21.30;99.90;;;;;;5106935;28;21098;-53
2022/06/13 06:15:30;;;;;;;5.72;3.40;;;22.10;99.90;;;;;;5112595;28;20215;-53
2022/06/13 06:17:58;;;;;;;5.78;3.35;;;22.50;99.90;;;;;;5112186;28;20262;-53
2022/06/13 06:20:26;;;;;;;5.30;2.90;;;22.90;99.90;;;;;;5097901;28;20676;-54
2022/06/13 06:22:54;;;;;;;6.60;3.30;;;23.30;99.90;;;;;;5109055;28;20203;-54
2022/06/13 06:25:22;;;;;;;5.88;3.13;;;23.70;99.90;;;;;;5107430;28;20336;-54
2022/06/13 06:27:51;;;;;;;8.18;3.97;;;24.10;99.90;;;;;;5107090;28;20216;-54
2022/06/13 06:30:20;;;;;;;7.43;3.40;;;24.50;99.90;;;;;;5111205;28;20903;-53
2022/06/13 06:32:54;;;;;;;7.90;3.30;;;24.80;99.70;;;;;;5111393;28;20215;-53
2022/06/13 06:35:22;;;;;;;7.47;3.22;;;24.90;99.30;;;;;;5111481;28;20242;-53
2022/06/13 06:37:53;;;;;;;7.10;3.50;;;23.90;98.30;;;;;;5111157;28;20220;-54
2022/06/13 06:40:24;;;;;;;6.43;3.53;;;23.40;98.60;;;;;;5110876;28;20207;-53
2022/06/13 06:42:54;;;;;;;6.47;3.58;;;23.80;98.70;;;;;;5110248;28;20195;-53
2022/06/13 06:45:23;;;;;;;6.95;3.42;;;24.40;97.50;;;;;;5111317;28;20727;-53
2022/06/13 06:47:52;;;;;;;7.32;3.60;;;24.70;97.70;;;;;;5103649;28;20208;-53
2022/06/13 06:50:21;;;;;;;9.00;3.65;;;24.70;97.10;;;;;;5109832;28;20212;-54
2022/06/13 06:52:49;;;;;;;6.72;3.33;;;24.90;96.40;;;;;;5110968;28;20212;-54
2022/06/13 07:00:58;;;;;;;5.72;3.25;;;23.30;97.90;;;;;;5112089;28;20207;-53
2022/06/13 07:03:27;;;;;;;7.93;3.40;;;24.30;98.60;;;;;;5099361;28;20208;-53
2022/06/13 07:05:55;;;;;;;7.88;3.50;;;25.10;97.60;;;;;;5105494;28;20235;-53
2022/06/13 07:08:23;;;;;;;6.63;3.28;;;24.40;95.30;;;;;;5111357;28;20211;-52
2022/06/13 07:10:51;;;;;;;8.85;3.17;;;23.70;95.50;;;;;;5111894;28;20211;-53
2022/06/13 07:13:21;;;;;;;8.00;3.40;;;22.50;96.20;;;;;;5111137;28;20269;-53
2022/06/13 07:15:50;;;;;;;9.73;3.30;;;21.90;97.30;;;;;;5111413;28;20375;-52
2022/06/13 07:18:18;;;;;;;9.48;3.35;;;21.50;98.30;;;;;;5110191;28;20203;-53
2022/06/13 07:20:47;;;;;;;8.50;3.47;;;21.30;99.30;;;;;;5111512;28;20238;-53
2022/06/13 07:23:15;;;;;;;7.93;3.30;;;21.00;99.20;;;;;;5109022;28;20199;-53
2022/06/13 07:25:43;;;;;;;7.78;3.22;;;20.70;99.90;;;;;;5111351;28;20255;-52
2022/06/13 07:28:11;;;;;;;10.80;3.75;;;20.50;99.90;;;;;;5110411;28;20204;-53
2022/06/13 07:30:40;;;;;;;10.27;3.75;;;20.40;99.90;;;;;;5110971;28;20200;-52
2022/06/13 07:33:08;;;;;;;8.27;3.92;;;20.20;99.90;;;;;;5110249;28;20220;-53
2022/06/13 07:35:37;;;;;;;6.90;3.42;;;20.20;99.90;;;;;;5110662;28;20716;-52
2022/06/13 07:38:20;;;;;;;7.63;3.30;;;20.10;99.90;;;;;;5110647;28;20215;-53
2022/06/13 07:40:50;;;;;;;8.93;3.65;;;20.10;99.90;;;;;;5110345;28;20279;-52
2022/06/13 07:43:27;;;;;;;9.07;3.65;;;19.90;99.90;;;;;;5110733;28;20661;-52
2022/06/13 07:45:59;;;;;;;5.18;3.20;;;19.90;99.90;;;;;;5112224;28;20223;-53
2022/06/13 07:48:29;;;;;;;10.35;3.63;;;19.90;99.90;;;;;;5099482;28;20234;-52
2022/06/13 07:50:58;;;;;;;9.95;3.95;;;19.90;99.90;;;;;;5112881;28;20272;-52
2022/06/13 07:53:26;;;;;;;9.98;4.35;;;20.00;99.90;;;;;;5099177;28;20224;-52
2022/06/13 07:56:17;;;;;;;11.02;4.13;;;19.90;99.90;;;;;;5084789;28;20252;-53
2022/06/13 07:58:48;;;;;;;8.85;3.65;;;19.60;99.90;;;;;;5076853;28;20243;-53
2022/06/13 08:01:19;;;;;;;13.13;4.68;;;19.20;99.90;;;;;;5077570;28;20261;-53
2022/06/13 08:03:48;;;;;;;11.05;4.88;;;19.10;99.90;;;;;;5088770;28;20200;-53
2022/06/13 08:06:16;;;;;;;10.75;4.70;;;19.10;99.90;;;;;;5088994;28;20688;-53
2022/06/13 08:08:45;;;;;;;9.10;4.57;;;19.00;99.90;;;;;;5089268;28;20791;-52
2022/06/13 08:11:17;;;;;;;10.02;4.20;;;18.90;99.90;;;;;;5089951;28;20269;-53
2022/06/13 08:13:46;;;;;;;11.38;4.50;;;18.80;99.90;;;;;;5089762;28;20625;-53
2022/06/13 08:16:14;;;;;;;8.65;4.60;;;18.80;99.90;;;;;;5089387;28;20227;-53
2022/06/13 08:18:43;;;;;;;12.70;5.60;;;18.60;99.90;;;;;;5089345;28;20248;-53
2022/06/13 08:21:12;;;;;;;11.13;5.03;;;18.40;99.90;;;;;;5089337;28;20300;-52
2022/06/13 08:23:40;;;;;;;9.27;5.13;;;18.30;99.90;;;;;;5089089;28;20246;-52
2022/06/13 08:26:09;;;;;;;7.65;4.38;;;18.20;99.90;;;;;;5101815;28;20223;-53
2022/06/13 08:28:37;;;;;;;8.05;4.32;;;18.30;99.90;;;;;;5109633;28;20248;-52
2022/06/13 08:31:08;;;;;;;11.38;4.60;;;18.30;99.90;;;;;;5109760;28;20212;-53
2022/06/13 08:33:37;;;;;;;11.05;4.18;;;18.20;99.90;;;;;;5108980;28;20716;-53
2022/06/13 08:36:08;;;;;;;8.75;3.80;;;18.40;99.90;;;;;;5109757;28;20246;-53
2022/06/13 08:38:36;;;;;;;6.80;4.03;;;18.60;99.90;;;;;;5109227;28;20204;-53
2022/06/13 08:41:15;;;;;;;7.15;3.28;;;18.80;99.90;;;;;;5101354;28;20204;-53
2022/06/13 08:44:03;;;;;;;7.25;3.30;;;18.90;99.90;;;;;;5106270;28;20600;-53
2022/06/13 08:46:40;;;;;;;8.45;3.17;;;18.90;99.90;;;;;;5098112;28;20228;-53
2022/06/13 08:49:13;;;;;;;6.78;3.40;;;19.00;99.90;;;;;;5095102;28;20676;-53
2022/06/13 08:51:46;;;;;;;7.00;3.25;;;19.20;99.90;;;;;;5109723;28;20211;-53
2022/06/13 08:54:20;;;;;;;8.02;3.05;;;19.30;99.90;;;;;;5108844;28;20259;-52
2022/06/13 08:56:50;;;;;;;5.75;2.90;;;19.40;99.90;;;;;;5109619;28;20770;-52
2022/06/13 08:59:23;;;;;;;7.68;3.13;;;19.60;99.90;;;;;;5109807;28;20233;-53
2022/06/13 09:01:58;;;;;;;5.80;3.03;;;19.70;99.90;;;;;;5109007;28;20276;-53
2022/06/13 09:04:32;;;;;;;3.22;2.70;;;19.80;99.90;;;;;;5108879;28;20248;-53
2022/06/13 09:07:07;;;;;;;4.18;2.70;;;19.80;99.90;;;;;;5100666;28;20295;-53
2022/06/13 09:09:40;;;;;;;6.90;3.00;;;19.70;99.90;;;;;;5085168;28;20248;-53
2022/06/13 09:12:23;;;;;;;5.90;3.15;;;19.50;99.90;;;;;;5112788;28;20207;-52
2022/06/13 09:15:01;;;;;;;4.55;2.70;;;19.20;99.90;;;;;;5113477;28;20256;-53
2022/06/13 09:17:38;;;;;;;5.45;3.15;;;18.90;99.90;;;;;;5112703;28;20259;-52
2022/06/13 09:20:13;;;;;;;6.43;3.13;;;18.90;99.90;;;;;;5113474;28;20207;-53
2022/06/13 09:22:50;;;;;;;6.93;3.13;;;19.00;99.90;;;;;;5100810;28;20212;-53
2022/06/13 09:25:28;;;;;;;5.55;2.90;;;19.10;99.90;;;;;;5113110;28;20199;-53
2022/06/13 09:28:02;;;;;;;6.70;3.25;;;19.20;99.90;;;;;;5113654;28;20225;-53
2022/06/13 09:30:34;;;;;;;4.00;2.70;;;19.30;99.90;;;;;;5112128;28;20249;-53
2022/06/13 09:33:08;;;;;;;4.82;2.92;;;19.40;99.90;;;;;;5112870;28;20753;-53
2022/06/13 09:35:44;;;;;;;5.80;3.28;;;19.50;99.90;;;;;;5092511;28;20284;-53
2022/06/13 09:38:20;;;;;;;4.75;3.10;;;19.50;99.90;;;;;;5080153;28;20245;-53
2022/06/13 09:41:00;;;;;;;6.15;3.42;;;19.50;99.90;;;;;;5083709;28;20204;-53
2022/06/13 09:43:41;;;;;;;5.95;3.38;;;19.40;99.90;;;;;;5099440;28;20264;-52
2022/06/13 09:46:16;;;;;;;4.32;3.50;;;19.40;99.90;;;;;;5104711;28;20234;-53
2022/06/13 09:48:55;;;;;;;5.25;3.47;;;19.60;99.90;;;;;;5096657;28;20200;-54
2022/06/13 09:51:37;;;;;;;4.22;3.17;;;19.90;99.90;;;;;;5091752;28;20277;-53
2022/06/13 09:54:14;;;;;;;5.93;3.08;;;20.20;99.90;;;;;;5081150;28;20247;-53
2022/06/13 09:56:51;;;;;;;5.38;3.25;;;20.30;99.90;;;;;;5091981;28;20269;-53
2022/06/13 09:59:32;;;;;;;4.10;3.17;;;20.50;99.90;;;;;;5091494;28;20692;-52
2022/06/13 10:02:05;;;;;;;6.15;3.40;;;20.60;99.90;;;;;;5091986;28;20548;-52
2022/06/13 10:04:40;;;;;;;3.88;2.90;;;20.60;99.90;;;;;;5091521;28;20670;-52
2022/06/13 10:07:16;;;;;;;5.40;2.80;;;20.70;99.90;;;;;;5092083;28;20664;-52
2022/06/13 10:09:53;;;;;;;5.85;3.40;;;20.90;99.90;;;;;;5091072;28;20208;-52
2022/06/13 10:12:32;;;;;;;4.15;2.88;;;20.90;99.90;;;;;;5091405;28;20200;-52
2022/06/13 10:15:24;;;;;;;4.03;3.15;;;21.00;99.90;;;;;;5091917;28;20220;-52
2022/06/13 10:18:09;;;;;;;5.03;3.22;;;21.10;99.90;;;;;;5080913;28;20266;-52
2022/06/13 10:20:44;;;;;;;4.88;3.20;;;21.30;99.90;;;;;;5076302;28;20204;-52
2022/06/13 10:23:20;;;;;;;5.25;3.63;;;21.30;99.90;;;;;;5091033;28;20235;-52
2022/06/13 10:26:01;;;;;;;4.70;4.00;;;21.10;99.90;;;;;;5101283;28;20218;-52
2022/06/13 10:28:53;;;;;;;5.05;4.15;;;21.00;99.90;;;;;;5110088;28;20672;-52
2022/06/13 10:31:33;;;;;;;5.97;4.15;;;21.40;99.90;;;;;;5108899;28;20207;-52
2022/06/13 10:34:13;;;;;;;5.80;4.10;;;21.50;99.90;;;;;;5103383;28;20216;-52
2022/06/13 10:36:52;;;;;;;5.85;3.72;;;21.40;99.90;;;;;;5111174;28;20798;-52
2022/06/13 10:39:23;;;;;;;7.13;3.75;;;21.30;99.90;;;;;;5110031;28;20227;-52
2022/06/13 10:41:57;;;;;;;5.88;4.10;;;21.50;99.90;;;;;;5098311;28;20205;-52
2022/06/13 10:44:25;;;;;;;6.75;4.40;;;21.60;99.90;;;;;;5111423;28;20203;-52
2022/06/13 10:47:05;;;;;;;5.20;4.03;;;21.60;99.90;;;;;;5109452;28;20306;-52
2022/06/13 10:49:38;;;;;;;7.65;3.85;;;21.30;99.90;;;;;;5100407;28;20230;-52
2022/06/13 10:52:10;;;;;;;5.43;4.47;;;21.20;99.90;;;;;;5111066;28;20235;-52
2022/06/13 10:54:43;;;;;;;8.48;4.43;;;21.10;99.90;;;;;;5110938;28;20227;-53
2022/06/13 10:57:17;;;;;;;4.88;3.97;;;21.00;99.90;;;;;;5095921;28;20259;-52
2022/06/13 11:00:05;;;;;;;6.63;4.20;;;21.10;99.90;;;;;;5111474;28;20251;-52
2022/06/13 11:02:35;;;;;;;7.75;4.32;;;21.30;99.90;;;;;;5110155;28;20199;-52
2022/06/13 11:05:07;;;;;;;7.10;4.80;;;21.60;99.90;;;;;;5111045;28;20203;-52
2022/06/13 11:07:43;;;;;;;8.50;4.43;;;21.90;99.90;;;;;;5109928;28;20250;-52
2022/06/13 11:10:36;;;;;;;7.00;4.47;;;21.60;99.90;;;;;;5099541;28;20237;-53
2022/06/13 11:13:13;;;;;;;9.20;4.85;;;21.50;99.90;;;;;;5086539;28;20208;-53
2022/06/13 11:24:18;;;;;;;11.10;4.80;;;21.80;99.90;;;;;;5105210;28;20231;-52
2022/06/13 11:29:36;;;;;;;7.32;4.57;;;22.10;99.90;;;;;;5110008;28;20204;-52
2022/06/13 11:32:06;;;;;;;5.97;4.15;;;22.40;99.90;;;;;;5110326;28;20211;-52
2022/06/13 11:34:41;;;;;;;10.45;4.15;;;22.40;99.90;;;;;;5110424;28;20219;-52
2022/06/13 11:37:18;;;;;;;8.13;4.38;;;22.40;99.90;;;;;;5110521;28;20250;-53
2022/06/13 11:39:49;;;;;;;9.85;4.78;;;22.30;99.90;;;;;;5110364;28;20680;-52
2022/06/13 11:42:22;;;;;;;9.20;4.25;;;22.20;99.90;;;;;;5097020;28;20199;-52
2022/06/13 11:44:55;;;;;;;8.40;4.53;;;22.10;99.90;;;;;;5110800;28;20200;-52
2022/06/13 11:47:24;;;;;;;8.38;4.35;;;22.30;99.90;;;;;;5104633;28;20293;-53
2022/06/13 11:49:57;;;;;;;10.07;4.32;;;22.30;99.20;;;;;;5102340;28;20235;-52
2022/06/13 11:55:24;;;;;;;6.82;4.18;;;21.90;95.30;;;;;;5110091;28;20224;-52
2022/06/13 11:57:56;;;;;;;8.10;4.70;;;22.00;97.00;;;;;;5109875;28;20228;-52
2022/06/13 12:00:32;;;;;;;5.65;3.55;;;22.00;96.90;;;;;;5080462;28;20196;-53
2022/06/13 12:03:22;;;;;;;7.28;4.70;;;21.90;95.30;;;;;;5085551;28;20204;-53
2022/06/13 12:05:59;;;;;;;5.70;4.00;;;21.90;96.10;;;;;;5099730;28;20223;-52
2022/06/13 12:08:29;;;;;;;9.50;4.65;;;22.20;96.30;;;;;;5109839;28;20259;-53
2022/06/13 12:11:01;;;;;;;7.75;4.72;;;22.20;96.50;;;;;;5109932;28;20203;-53
2022/06/13 12:13:31;;;;;;;7.30;4.38;;;22.00;95.90;;;;;;5109869;28;20239;-52
2022/06/13 12:16:19;;;;;;;7.85;4.68;;;21.80;96.10;;;;;;5109363;28;20259;-52
2022/06/13 12:18:55;;;;;;;6.07;4.05;;;21.90;97.80;;;;;;5076857;28;20213;-53
2022/06/13 12:21:33;;;;;;;7.93;4.50;;;22.00;98.30;;;;;;5104805;28;20634;-53
2022/06/13 12:24:10;;;;;;;7.32;4.68;;;22.10;98.10;;;;;;5101979;28;20204;-52
2022/06/13 12:26:43;;;;;;;9.80;4.90;;;22.10;98.10;;;;;;5109558;28;20258;-52
2022/06/13 12:29:39;;;;;;;8.95;4.82;;;22.10;99.40;;;;;;5109779;28;20207;-52
2022/06/13 12:32:16;;;;;;;8.25;4.60;;;22.20;99.40;;;;;;5109414;28;20243;-53
2022/06/13 12:34:57;;;;;;;9.95;5.00;;;22.40;99.10;;;;;;5110450;28;20215;-53
2022/06/13 12:37:38;;;;;;;8.45;4.88;;;22.60;98.40;;;;;;5109375;28;20784;-54
2022/06/13 12:40:21;;;;;;;7.30;4.65;;;22.60;99.00;;;;;;5112247;28;20268;-53
2022/06/13 12:43:05;;;;;;;6.95;4.80;;;22.80;98.50;;;;;;5094736;28;20203;-53
2022/06/13 12:46:04;;;;;;;5.55;4.15;;;23.00;98.20;;;;;;5113513;28;20191;-52
2022/06/13 12:48:45;;;;;;;10.18;4.85;;;22.60;96.70;;;;;;5100803;28;20262;-52
2022/06/13 12:51:28;;;;;;;8.88;5.45;;;22.20;96.00;;;;;;5112569;28;20635;-52
2022/06/13 12:54:43;;;;;;;10.52;4.90;;;21.70;96.60;;;;;;5091330;28;20207;-52
2022/06/13 12:57:21;;;;;;;7.68;4.47;;;21.40;96.40;;;;;;5106527;28;20299;-51
2022/06/13 13:00:01;;;;;;;7.60;4.80;;;21.30;96.70;;;;;;5093119;28;20971;-52
2022/06/13 13:02:39;;;;;;;8.10;4.93;;;21.30;97.10;;;;;;5090754;28;20195;-52
2022/06/13 13:05:32;;;;;;;6.00;4.10;;;21.40;96.40;;;;;;5086676;28;20196;-53
2022/06/13 13:08:14;;;;;;;6.57;3.20;;;21.00;93.90;;;;;;5093187;28;20242;-52
2022/06/13 13:11:07;;;;;;;6.38;3.65;;;20.90;93.00;;;;;;5096763;28;20302;-52
2022/06/13 13:13:45;;;;;;;5.63;3.28;;;21.10;94.30;;;;;;5084392;28;20265;-51
2022/06/13 13:16:23;;;;;;;6.03;3.97;;;21.30;94.30;;;;;;5089203;28;20236;-52
2022/06/13 13:19:13;;;;;;;9.35;4.32;;;21.50;96.50;;;;;;5093158;28;20204;-53
2022/06/13 13:21:47;;;;;;;6.70;3.92;;;21.70;95.20;;;;;;5092983;28;20200;-53
2022/06/13 13:24:30;;;;;;;5.50;3.92;;;21.90;94.70;;;;;;5092063;28;20212;-53
2022/06/13 13:27:04;;;;;;;6.30;3.85;;;22.00;93.80;;;;;;5113620;28;20250;-53
2022/06/13 13:29:44;;;;;;;8.07;3.33;;;21.90;92.40;;;;;;5113009;28;20351;-53
2022/06/13 13:32:21;;;;;;;6.82;3.83;;;21.70;91.40;;;;;;5112233;28;20200;-53
2022/06/13 13:35:02;;;;;;;5.82;3.83;;;21.70;92.20;;;;;;5113403;28;20256;-53
2022/06/13 13:37:35;;;;;;;8.75;4.28;;;21.50;92.60;;;;;;5088801;28;20243;-53
2022/06/13 13:40:11;;;;;;;7.88;4.45;;;21.50;92.90;;;;;;5112873;28;20264;-53
2022/06/13 13:42:48;;;;;;;7.82;4.18;;;21.30;92.10;;;;;;5094857;28;20230;-53
2022/06/13 13:45:32;;;;;;;8.70;4.57;;;21.40;93.30;;;;;;5112195;28;20259;-52